KAP5171 KBOS-KACK
Flight info
| Callsign | KAP5171 |
|---|---|
| Flight time | 0h 35m |
| Altitude | 8000 |
| Route | LOGAN4 ACK |
| Aircraft | C402/L-SDFR/C |
Departure
| Time | 2026-05-04 19:16 |
|---|---|
| Airport | Boston Logan International Airport (KBOS) |
Arrival
| Time | 2026-05-04 19:52 |
|---|---|
| Airport | Nantucket Memorial Airport (KACK) |
| Time | Latitude | Longitude | Altitude | Speed | Heading |
|---|---|---|---|---|---|
| 2026-05-04 19:03 | 42.36528 | -71.01530 | 21 ft | 0 kts | 301° |
| 2026-05-04 19:10 | 42.36530 | -71.01547 | 21 ft | 2 kts | 215° |
| 2026-05-04 19:10 | 42.36526 | -71.01550 | 21 ft | 0 kts | 204° |
| 2026-05-04 19:11 | 42.36515 | -71.01558 | 23 ft | 9 kts | 211° |
| 2026-05-04 19:11 | 42.36445 | -71.01524 | 21 ft | 14 kts | 128° |
| 2026-05-04 19:11 | 42.36407 | -71.01455 | 21 ft | 14 kts | 127° |
| 2026-05-04 19:12 | 42.36478 | -71.01362 | 21 ft | 16 kts | 25° |
| 2026-05-04 19:12 | 42.36700 | -71.01251 | 21 ft | 16 kts | 15° |
| 2026-05-04 19:12 | 42.36798 | -71.01275 | 21 ft | 11 kts | 330° |
| 2026-05-04 19:13 | 42.36856 | -71.01258 | 21 ft | 13 kts | 39° |
| 2026-05-04 19:13 | 42.36948 | -71.01153 | 21 ft | 18 kts | 41° |
| 2026-05-04 19:13 | 42.37054 | -71.01067 | 22 ft | 18 kts | 27° |
| 2026-05-04 19:13 | 42.37165 | -71.00995 | 21 ft | 18 kts | 25° |
| 2026-05-04 19:14 | 42.37275 | -71.00923 | 21 ft | 17 kts | 25° |
| 2026-05-04 19:14 | 42.37389 | -71.00865 | 21 ft | 18 kts | 18° |
| 2026-05-04 19:14 | 42.37507 | -71.00808 | 21 ft | 18 kts | 20° |
| 2026-05-04 19:14 | 42.37632 | -71.00747 | 21 ft | 19 kts | 19° |
| 2026-05-04 19:15 | 42.37733 | -71.00699 | 21 ft | 13 kts | 19° |
| 2026-05-04 19:15 | 42.37821 | -71.00652 | 21 ft | 12 kts | 37° |
| 2026-05-04 19:15 | 42.37828 | -71.00558 | 21 ft | 11 kts | 106° |
| 2026-05-04 19:15 | 42.37797 | -71.00486 | 21 ft | 7 kts | 163° |
| 2026-05-04 19:16 | 42.37752 | -71.00493 | 21 ft | 12 kts | 200° |
| 2026-05-04 19:16 | 42.37468 | -71.00622 | 36 ft | 69 kts | 204° |
| 2026-05-04 19:16 | 42.36933 | -71.00872 | 276 ft | 87 kts | 206° |
| 2026-05-04 19:16 | 42.36350 | -71.01158 | 652 ft | 96 kts | 204° |
| 2026-05-04 19:17 | 42.35708 | -71.01432 | 1081 ft | 100 kts | 205° |
| 2026-05-04 19:17 | 42.35023 | -71.01453 | 1625 ft | 116 kts | 169° |
| 2026-05-04 19:17 | 42.34333 | -71.00591 | 1861 ft | 148 kts | 136° |
| 2026-05-04 19:17 | 42.33866 | -70.99326 | 2313 ft | 148 kts | 123° |
| 2026-05-04 19:18 | 42.33380 | -70.98013 | 2642 ft | 166 kts | 124° |
| 2026-05-04 19:18 | 42.32922 | -70.96575 | 3262 ft | 163 kts | 119° |
| 2026-05-04 19:18 | 42.32519 | -70.95214 | 3960 ft | 153 kts | 125° |
| 2026-05-04 19:18 | 42.31987 | -70.93946 | 4448 ft | 162 kts | 127° |
| 2026-05-04 19:19 | 42.31472 | -70.92549 | 4962 ft | 168 kts | 123° |
| 2026-05-04 19:19 | 42.31001 | -70.91103 | 5522 ft | 168 kts | 123° |
| 2026-05-04 19:19 | 42.30667 | -70.90134 | 5894 ft | 169 kts | 121° |
| 2026-05-04 19:19 | 42.30053 | -70.88195 | 6643 ft | 170 kts | 120° |
| 2026-05-04 19:20 | 42.29737 | -70.87207 | 7021 ft | 169 kts | 120° |
| 2026-05-04 19:20 | 42.29265 | -70.85754 | 7567 ft | 168 kts | 120° |
| 2026-05-04 19:20 | 42.28777 | -70.84291 | 7984 ft | 178 kts | 120° |
| 2026-05-04 19:20 | 42.28283 | -70.82763 | 8394 ft | 185 kts | 118° |
| 2026-05-04 19:21 | 42.27699 | -70.81035 | 8325 ft | 216 kts | 119° |
| 2026-05-04 19:21 | 42.27048 | -70.79115 | 8339 ft | 230 kts | 118° |
| 2026-05-04 19:21 | 42.26398 | -70.77151 | 8470 ft | 233 kts | 117° |
| 2026-05-04 19:21 | 42.25724 | -70.75110 | 8591 ft | 236 kts | 117° |
| 2026-05-04 19:22 | 42.25051 | -70.73084 | 8706 ft | 238 kts | 117° |
| 2026-05-04 19:22 | 42.24373 | -70.71042 | 8812 ft | 239 kts | 117° |
| 2026-05-04 19:22 | 42.23692 | -70.68995 | 8911 ft | 239 kts | 117° |
| 2026-05-04 19:22 | 42.23009 | -70.66943 | 9004 ft | 240 kts | 117° |
| 2026-05-04 19:23 | 42.22318 | -70.64869 | 9005 ft | 244 kts | 117° |
| 2026-05-04 19:23 | 42.21619 | -70.62773 | 9009 ft | 246 kts | 117° |
| 2026-05-04 19:23 | 42.20916 | -70.60663 | 9020 ft | 247 kts | 117° |
| 2026-05-04 19:23 | 42.20209 | -70.58548 | 9021 ft | 248 kts | 117° |
| 2026-05-04 19:24 | 42.19501 | -70.56426 | 9021 ft | 248 kts | 117° |
| 2026-05-04 19:24 | 42.18792 | -70.54306 | 9021 ft | 248 kts | 117° |
| 2026-05-04 19:24 | 42.18082 | -70.52184 | 9017 ft | 248 kts | 117° |
| 2026-05-04 19:24 | 42.17369 | -70.50055 | 9016 ft | 248 kts | 117° |
| 2026-05-04 19:25 | 42.16657 | -70.47932 | 9017 ft | 249 kts | 117° |
| 2026-05-04 19:25 | 42.15945 | -70.45806 | 9020 ft | 249 kts | 117° |
| 2026-05-04 19:25 | 42.14409 | -70.41234 | 9022 ft | 249 kts | 117° |
| 2026-05-04 19:26 | 42.13694 | -70.39106 | 9019 ft | 249 kts | 117° |
| 2026-05-04 19:26 | 42.12978 | -70.36980 | 9020 ft | 248 kts | 117° |
| 2026-05-04 19:26 | 42.12264 | -70.34859 | 9021 ft | 248 kts | 117° |
| 2026-05-04 19:26 | 42.11551 | -70.32743 | 9028 ft | 248 kts | 117° |
| 2026-05-04 19:27 | 42.10836 | -70.30624 | 9052 ft | 248 kts | 118° |
| 2026-05-04 19:27 | 42.10124 | -70.28512 | 9052 ft | 248 kts | 118° |
| 2026-05-04 19:27 | 42.09410 | -70.26400 | 9052 ft | 247 kts | 118° |
| 2026-05-04 19:27 | 42.08698 | -70.24290 | 9052 ft | 247 kts | 118° |
| 2026-05-04 19:28 | 42.07985 | -70.22185 | 9052 ft | 247 kts | 118° |
| 2026-05-04 19:28 | 42.07268 | -70.20068 | 9040 ft | 248 kts | 118° |
| 2026-05-04 19:28 | 42.06554 | -70.17962 | 9047 ft | 247 kts | 118° |
| 2026-05-04 19:28 | 42.05842 | -70.15858 | 9047 ft | 247 kts | 118° |
| 2026-05-04 19:29 | 42.05129 | -70.13758 | 9049 ft | 246 kts | 118° |
| 2026-05-04 19:29 | 42.04416 | -70.11661 | 9047 ft | 246 kts | 118° |
| 2026-05-04 19:29 | 42.03705 | -70.09568 | 9050 ft | 247 kts | 118° |
| 2026-05-04 19:29 | 42.02990 | -70.07466 | 9049 ft | 247 kts | 118° |
| 2026-05-04 19:30 | 42.02274 | -70.05362 | 9049 ft | 247 kts | 118° |
| 2026-05-04 19:30 | 42.01311 | -70.03566 | 9046 ft | 235 kts | 150° |
| 2026-05-04 19:30 | 41.99865 | -70.02842 | 9055 ft | 217 kts | 181° |
| 2026-05-04 19:30 | 41.98366 | -70.02655 | 9063 ft | 216 kts | 184° |
| 2026-05-04 19:31 | 41.96867 | -70.02519 | 9070 ft | 216 kts | 185° |
| 2026-05-04 19:31 | 41.95364 | -70.02395 | 9070 ft | 216 kts | 185° |
| 2026-05-04 19:31 | 41.93858 | -70.02270 | 9071 ft | 217 kts | 185° |
| 2026-05-04 19:31 | 41.92349 | -70.02147 | 9070 ft | 217 kts | 185° |
| 2026-05-04 19:32 | 41.90837 | -70.02025 | 9098 ft | 218 kts | 185° |
| 2026-05-04 19:32 | 41.89327 | -70.01907 | 9102 ft | 217 kts | 185° |
| 2026-05-04 19:32 | 41.87817 | -70.01789 | 9102 ft | 217 kts | 185° |
| 2026-05-04 19:32 | 41.86308 | -70.01671 | 9104 ft | 217 kts | 185° |
| 2026-05-04 19:33 | 41.84801 | -70.01548 | 9092 ft | 216 kts | 185° |
| 2026-05-04 19:33 | 41.83301 | -70.01412 | 9093 ft | 216 kts | 185° |
| 2026-05-04 19:33 | 41.81807 | -70.01269 | 8981 ft | 214 kts | 185° |
| 2026-05-04 19:33 | 41.80330 | -70.01126 | 8833 ft | 212 kts | 185° |
| 2026-05-04 19:34 | 41.78861 | -70.00987 | 8684 ft | 211 kts | 185° |
| 2026-05-04 19:34 | 41.77392 | -70.00848 | 8555 ft | 211 kts | 185° |
| 2026-05-04 19:34 | 41.75931 | -70.00707 | 8422 ft | 211 kts | 185° |
| 2026-05-04 19:34 | 41.74467 | -70.00560 | 8290 ft | 211 kts | 185° |
| 2026-05-04 19:35 | 41.73006 | -70.00416 | 8131 ft | 211 kts | 185° |
| 2026-05-04 19:35 | 41.71534 | -70.00276 | 7957 ft | 212 kts | 185° |
| 2026-05-04 19:35 | 41.70057 | -70.00135 | 7796 ft | 213 kts | 185° |
| 2026-05-04 19:35 | 41.68578 | -69.99992 | 7641 ft | 213 kts | 185° |
| 2026-05-04 19:36 | 41.67101 | -69.99849 | 7479 ft | 210 kts | 185° |
| 2026-05-04 19:36 | 41.66139 | -69.99753 | 7372 ft | 208 kts | 185° |
| 2026-05-04 19:36 | 41.64705 | -69.99606 | 7203 ft | 206 kts | 185° |
| 2026-05-04 19:36 | 41.63282 | -69.99444 | 7042 ft | 205 kts | 185° |
| 2026-05-04 19:37 | 41.61867 | -69.99277 | 6879 ft | 204 kts | 185° |
| 2026-05-04 19:37 | 41.60456 | -69.99092 | 6716 ft | 205 kts | 183° |
| 2026-05-04 19:37 | 41.59041 | -69.98782 | 6579 ft | 206 kts | 180° |
| 2026-05-04 19:37 | 41.57630 | -69.98442 | 6426 ft | 206 kts | 180° |
| 2026-05-04 19:38 | 41.56220 | -69.98101 | 6214 ft | 207 kts | 180° |
| 2026-05-04 19:38 | 41.54793 | -69.97756 | 5936 ft | 208 kts | 180° |
| 2026-05-04 19:38 | 41.53367 | -69.97407 | 5666 ft | 208 kts | 180° |
| 2026-05-04 19:38 | 41.51947 | -69.97051 | 5396 ft | 207 kts | 180° |
| 2026-05-04 19:39 | 41.50538 | -69.96691 | 5128 ft | 206 kts | 180° |
| 2026-05-04 19:39 | 41.49139 | -69.96323 | 4865 ft | 203 kts | 180° |
| 2026-05-04 19:39 | 41.47757 | -69.95954 | 4616 ft | 201 kts | 180° |
| 2026-05-04 19:39 | 41.46390 | -69.95588 | 4358 ft | 199 kts | 180° |
| 2026-05-04 19:40 | 41.45035 | -69.95221 | 4102 ft | 198 kts | 180° |
| 2026-05-04 19:40 | 41.43690 | -69.94863 | 3839 ft | 196 kts | 180° |
| 2026-05-04 19:40 | 41.42354 | -69.94510 | 3589 ft | 195 kts | 180° |
| 2026-05-04 19:40 | 41.41029 | -69.94154 | 3333 ft | 193 kts | 180° |
| 2026-05-04 19:41 | 41.39719 | -69.93806 | 3154 ft | 187 kts | 181° |
| 2026-05-04 19:41 | 41.38496 | -69.93645 | 3223 ft | 169 kts | 192° |
| 2026-05-04 19:41 | 41.37368 | -69.93791 | 3247 ft | 156 kts | 202° |
| 2026-05-04 19:41 | 41.36438 | -69.94220 | 3515 ft | 138 kts | 211° |
| 2026-05-04 19:42 | 41.35536 | -69.94710 | 3407 ft | 143 kts | 212° |
| 2026-05-04 19:42 | 41.34648 | -69.95232 | 3382 ft | 137 kts | 213° |
| 2026-05-04 19:42 | 41.33809 | -69.95788 | 3395 ft | 129 kts | 216° |
| 2026-05-04 19:42 | 41.33149 | -69.96220 | 3306 ft | 80 kts | 217° |
| 2026-05-04 19:43 | 41.32695 | -69.96515 | 3028 ft | 71 kts | 221° |
| 2026-05-04 19:43 | 41.32299 | -69.96845 | 2722 ft | 63 kts | 225° |
| 2026-05-04 19:43 | 41.31965 | -69.97186 | 2319 ft | 62 kts | 228° |
| 2026-05-04 19:43 | 41.31645 | -69.97547 | 2017 ft | 60 kts | 229° |
| 2026-05-04 19:44 | 41.31336 | -69.97902 | 1825 ft | 56 kts | 229° |
| 2026-05-04 19:44 | 41.31030 | -69.98251 | 1693 ft | 58 kts | 228° |
| 2026-05-04 19:44 | 41.30716 | -69.98619 | 1607 ft | 63 kts | 228° |
| 2026-05-04 19:44 | 41.30402 | -69.99039 | 1560 ft | 64 kts | 231° |
| 2026-05-04 19:45 | 41.30100 | -69.99480 | 1537 ft | 65 kts | 231° |
| 2026-05-04 19:45 | 41.29774 | -69.99944 | 1431 ft | 72 kts | 231° |
| 2026-05-04 19:45 | 41.29428 | -70.00423 | 1285 ft | 72 kts | 233° |
| 2026-05-04 19:45 | 41.29097 | -70.00928 | 1169 ft | 74 kts | 230° |
| 2026-05-04 19:46 | 41.28763 | -70.01445 | 1096 ft | 77 kts | 231° |
| 2026-05-04 19:46 | 41.28432 | -70.01999 | 962 ft | 76 kts | 232° |
| 2026-05-04 19:46 | 41.28083 | -70.02538 | 832 ft | 81 kts | 229° |
| 2026-05-04 19:46 | 41.27703 | -70.03102 | 719 ft | 80 kts | 229° |
| 2026-05-04 19:47 | 41.27326 | -70.03649 | 558 ft | 80 kts | 231° |
| 2026-05-04 19:47 | 41.26952 | -70.04189 | 421 ft | 79 kts | 225° |
| 2026-05-04 19:47 | 41.26573 | -70.04740 | 312 ft | 79 kts | 227° |
| 2026-05-04 19:47 | 41.26190 | -70.05232 | 372 ft | 70 kts | 223° |
| 2026-05-04 19:48 | 41.25785 | -70.05715 | 563 ft | 91 kts | 224° |
| 2026-05-04 19:48 | 41.25207 | -70.06262 | 790 ft | 111 kts | 200° |
| 2026-05-04 19:48 | 41.24405 | -70.05783 | 1103 ft | 154 kts | 143° |
| 2026-05-04 19:48 | 41.24395 | -70.04196 | 1319 ft | 206 kts | 59° |
| 2026-05-04 19:49 | 41.25319 | -70.02703 | 1652 ft | 215 kts | 49° |
| 2026-05-04 19:49 | 41.26261 | -70.01131 | 1888 ft | 217 kts | 49° |
| 2026-05-04 19:49 | 41.27307 | -69.99663 | 2078 ft | 213 kts | 27° |
| 2026-05-04 19:49 | 41.28562 | -69.99539 | 2402 ft | 159 kts | 311° |
| 2026-05-04 19:50 | 41.29066 | -70.00679 | 2182 ft | 138 kts | 267° |
| 2026-05-04 19:50 | 41.28915 | -70.01637 | 1620 ft | 83 kts | 237° |
| 2026-05-04 19:50 | 41.28541 | -70.02159 | 1193 ft | 76 kts | 226° |
| 2026-05-04 19:50 | 41.28160 | -70.02608 | 931 ft | 70 kts | 228° |
| 2026-05-04 19:51 | 41.27802 | -70.03065 | 806 ft | 70 kts | 226° |
| 2026-05-04 19:51 | 41.27449 | -70.03552 | 657 ft | 74 kts | 227° |
| 2026-05-04 19:51 | 41.27064 | -70.04082 | 475 ft | 85 kts | 227° |
| 2026-05-04 19:51 | 41.26654 | -70.04648 | 324 ft | 84 kts | 223° |
| 2026-05-04 19:52 | 41.26242 | -70.05200 | 182 ft | 84 kts | 221° |
| 2026-05-04 19:52 | 41.25830 | -70.05738 | 60 ft | 79 kts | 226° |
| 2026-05-04 19:52 | 41.25537 | -70.06133 | 49 ft | 31 kts | 225° |
| 2026-05-04 19:52 | 41.25469 | -70.06232 | 48 ft | 14 kts | 223° |
| 2026-05-04 19:53 | 41.25371 | -70.06365 | 47 ft | 16 kts | 248° |
| 2026-05-04 19:53 | 41.25397 | -70.06432 | 48 ft | 7 kts | 307° |
| 2026-05-04 19:53 | 41.25445 | -70.06497 | 49 ft | 16 kts | 313° |
| 2026-05-04 19:53 | 41.25505 | -70.06521 | 49 ft | 10 kts | 48° |
| 2026-05-04 19:54 | 41.25564 | -70.06438 | 49 ft | 15 kts | 45° |
| 2026-05-04 19:54 | 41.25612 | -70.06387 | 49 ft | 7 kts | 21° |
| 2026-05-04 19:54 | 41.25635 | -70.06365 | 49 ft | 0 kts | 50° |